sensor_id;sensor_type;location;lat;lon;timestamp;P1;durP1;ratioP1;P2;durP2;ratioP2
39728;SDS011;25402;42.004;23.088;2023-09-07T00:00:58;22.88;;;14.32;;
39728;SDS011;25402;42.004;23.088;2023-09-07T00:03:27;20.65;;;13.30;;
39728;SDS011;25402;42.004;23.088;2023-09-07T00:05:54;18.38;;;11.80;;
39728;SDS011;25402;42.004;23.088;2023-09-07T00:08:21;14.60;;;10.63;;
39728;SDS011;25402;42.004;23.088;2023-09-07T00:10:49;22.50;;;11.13;;
39728;SDS011;25402;42.004;23.088;2023-09-07T00:13:16;18.15;;;11.32;;
39728;SDS011;25402;42.004;23.088;2023-09-07T00:15:43;20.65;;;11.20;;
39728;SDS011;25402;42.004;23.088;2023-09-07T00:18:10;18.98;;;11.85;;
39728;SDS011;25402;42.004;23.088;2023-09-07T00:20:38;18.42;;;11.07;;
39728;SDS011;25402;42.004;23.088;2023-09-07T00:23:05;15.88;;;11.23;;
39728;SDS011;25402;42.004;23.088;2023-09-07T00:25:32;18.80;;;11.30;;
39728;SDS011;25402;42.004;23.088;2023-09-07T00:27:59;26.83;;;10.75;;
39728;SDS011;25402;42.004;23.088;2023-09-07T00:30:26;20.80;;;11.77;;
39728;SDS011;25402;42.004;23.088;2023-09-07T00:32:54;15.55;;;11.32;;
39728;SDS011;25402;42.004;23.088;2023-09-07T00:35:21;18.35;;;11.00;;
39728;SDS011;25402;42.004;23.088;2023-09-07T00:37:49;15.95;;;10.80;;
39728;SDS011;25402;42.004;23.088;2023-09-07T00:40:16;17.60;;;11.30;;
39728;SDS011;25402;42.004;23.088;2023-09-07T00:42:43;21.00;;;11.60;;
39728;SDS011;25402;42.004;23.088;2023-09-07T00:45:10;16.50;;;10.90;;
39728;SDS011;25402;42.004;23.088;2023-09-07T00:47:38;18.75;;;11.43;;
39728;SDS011;25402;42.004;23.088;2023-09-07T00:50:05;20.40;;;10.98;;
39728;SDS011;25402;42.004;23.088;2023-09-07T00:52:33;19.08;;;11.65;;
39728;SDS011;25402;42.004;23.088;2023-09-07T00:55:02;14.95;;;10.40;;
39728;SDS011;25402;42.004;23.088;2023-09-07T00:57:30;15.50;;;11.50;;
39728;SDS011;25402;42.004;23.088;2023-09-07T00:59:57;22.48;;;11.10;;
39728;SDS011;25402;42.004;23.088;2023-09-07T01:02:24;24.15;;;11.38;;
39728;SDS011;25402;42.004;23.088;2023-09-07T01:04:51;18.27;;;11.30;;
39728;SDS011;25402;42.004;23.088;2023-09-07T01:07:20;12.90;;;10.48;;
39728;SDS011;25402;42.004;23.088;2023-09-07T01:09:51;20.10;;;11.77;;
39728;SDS011;25402;42.004;23.088;2023-09-07T01:12:24;19.52;;;11.23;;
39728;SDS011;25402;42.004;23.088;2023-09-07T01:14:50;25.90;;;11.75;;
39728;SDS011;25402;42.004;23.088;2023-09-07T01:17:18;19.52;;;12.55;;
39728;SDS011;25402;42.004;23.088;2023-09-07T01:19:46;17.98;;;12.07;;
39728;SDS011;25402;42.004;23.088;2023-09-07T01:22:17;17.98;;;12.18;;
39728;SDS011;25402;42.004;23.088;2023-09-07T01:24:47;15.68;;;11.85;;
39728;SDS011;25402;42.004;23.088;2023-09-07T01:27:16;15.85;;;10.68;;
39728;SDS011;25402;42.004;23.088;2023-09-07T01:29:43;16.63;;;11.40;;
39728;SDS011;25402;42.004;23.088;2023-09-07T01:32:10;18.50;;;11.23;;
39728;SDS011;25402;42.004;23.088;2023-09-07T01:34:38;15.23;;;11.02;;
39728;SDS011;25402;42.004;23.088;2023-09-07T01:37:05;21.73;;;11.93;;
39728;SDS011;25402;42.004;23.088;2023-09-07T01:39:34;21.55;;;11.15;;
39728;SDS011;25402;42.004;23.088;2023-09-07T01:42:02;15.75;;;11.10;;
39728;SDS011;25402;42.004;23.088;2023-09-07T01:44:29;17.70;;;11.00;;
39728;SDS011;25402;42.004;23.088;2023-09-07T01:46:56;14.55;;;11.15;;
39728;SDS011;25402;42.004;23.088;2023-09-07T01:49:23;19.55;;;10.90;;
39728;SDS011;25402;42.004;23.088;2023-09-07T01:51:50;18.10;;;11.50;;
39728;SDS011;25402;42.004;23.088;2023-09-07T01:54:18;19.70;;;11.77;;
39728;SDS011;25402;42.004;23.088;2023-09-07T01:56:48;23.90;;;11.35;;
39728;SDS011;25402;42.004;23.088;2023-09-07T01:59:15;16.90;;;10.95;;
39728;SDS011;25402;42.004;23.088;2023-09-07T02:01:42;16.52;;;10.88;;
39728;SDS011;25402;42.004;23.088;2023-09-07T02:04:09;18.02;;;10.25;;
39728;SDS011;25402;42.004;23.088;2023-09-07T02:06:36;15.25;;;10.50;;
39728;SDS011;25402;42.004;23.088;2023-09-07T02:09:03;16.05;;;10.73;;
39728;SDS011;25402;42.004;23.088;2023-09-07T02:11:30;14.65;;;9.95;;
39728;SDS011;25402;42.004;23.088;2023-09-07T02:13:58;16.73;;;10.20;;
39728;SDS011;25402;42.004;23.088;2023-09-07T02:16:25;26.80;;;10.73;;
39728;SDS011;25402;42.004;23.088;2023-09-07T02:19:02;21.73;;;10.50;;
39728;SDS011;25402;42.004;23.088;2023-09-07T02:21:32;16.52;;;10.70;;
39728;SDS011;25402;42.004;23.088;2023-09-07T02:24:00;18.85;;;10.27;;
39728;SDS011;25402;42.004;23.088;2023-09-07T02:26:29;19.23;;;10.77;;
39728;SDS011;25402;42.004;23.088;2023-09-07T02:28:59;20.13;;;10.82;;
39728;SDS011;25402;42.004;23.088;2023-09-07T02:33:58;35.08;;;11.27;;
39728;SDS011;25402;42.004;23.088;2023-09-07T02:36:25;15.20;;;10.75;;
39728;SDS011;25402;42.004;23.088;2023-09-07T02:38:55;15.95;;;10.93;;
39728;SDS011;25402;42.004;23.088;2023-09-07T02:41:22;70.93;;;15.18;;
39728;SDS011;25402;42.004;23.088;2023-09-07T02:43:50;36.92;;;13.40;;
39728;SDS011;25402;42.004;23.088;2023-09-07T02:46:19;28.20;;;14.45;;
39728;SDS011;25402;42.004;23.088;2023-09-07T02:48:46;19.77;;;12.00;;
39728;SDS011;25402;42.004;23.088;2023-09-07T02:51:13;21.98;;;12.38;;
39728;SDS011;25402;42.004;23.088;2023-09-07T02:53:40;19.73;;;10.70;;
39728;SDS011;25402;42.004;23.088;2023-09-07T02:56:07;15.63;;;11.15;;
39728;SDS011;25402;42.004;23.088;2023-09-07T02:58:36;18.27;;;10.05;;
39728;SDS011;25402;42.004;23.088;2023-09-07T03:01:05;28.92;;;11.90;;
39728;SDS011;25402;42.004;23.088;2023-09-07T03:03:36;22.02;;;11.75;;
39728;SDS011;25402;42.004;23.088;2023-09-07T03:06:08;20.33;;;12.13;;
39728;SDS011;25402;42.004;23.088;2023-09-07T03:08:35;20.00;;;11.82;;
39728;SDS011;25402;42.004;23.088;2023-09-07T03:11:03;23.60;;;11.93;;
39728;SDS011;25402;42.004;23.088;2023-09-07T03:13:33;19.83;;;11.68;;
39728;SDS011;25402;42.004;23.088;2023-09-07T03:16:01;20.45;;;11.65;;
39728;SDS011;25402;42.004;23.088;2023-09-07T03:18:30;21.20;;;10.75;;
39728;SDS011;25402;42.004;23.088;2023-09-07T03:20:59;26.77;;;10.40;;
39728;SDS011;25402;42.004;23.088;2023-09-07T03:26:33;22.23;;;11.40;;
39728;SDS011;25402;42.004;23.088;2023-09-07T03:29:01;16.48;;;10.30;;
39728;SDS011;25402;42.004;23.088;2023-09-07T03:31:28;16.73;;;10.52;;
39728;SDS011;25402;42.004;23.088;2023-09-07T03:33:56;25.40;;;10.60;;
39728;SDS011;25402;42.004;23.088;2023-09-07T03:36:24;19.75;;;12.07;;
39728;SDS011;25402;42.004;23.088;2023-09-07T03:38:51;17.23;;;12.25;;
39728;SDS011;25402;42.004;23.088;2023-09-07T03:41:18;21.85;;;13.48;;
39728;SDS011;25402;42.004;23.088;2023-09-07T03:43:45;21.75;;;12.68;;
39728;SDS011;25402;42.004;23.088;2023-09-07T03:46:12;27.27;;;12.25;;
39728;SDS011;25402;42.004;23.088;2023-09-07T03:48:39;10.15;;;6.35;;
39728;SDS011;25402;42.004;23.088;2023-09-07T03:51:07;12.50;;;7.18;;
39728;SDS011;25402;42.004;23.088;2023-09-07T03:53:35;20.08;;;8.13;;
39728;SDS011;25402;42.004;23.088;2023-09-07T03:56:02;12.07;;;7.50;;
39728;SDS011;25402;42.004;23.088;2023-09-07T03:58:30;13.43;;;9.90;;
39728;SDS011;25402;42.004;23.088;2023-09-07T04:00:58;14.07;;;8.05;;
39728;SDS011;25402;42.004;23.088;2023-09-07T04:03:25;14.82;;;8.73;;
39728;SDS011;25402;42.004;23.088;2023-09-07T04:05:52;16.08;;;9.77;;
39728;SDS011;25402;42.004;23.088;2023-09-07T04:08:19;29.75;;;12.10;;
39728;SDS011;25402;42.004;23.088;2023-09-07T04:10:48;19.58;;;11.48;;
39728;SDS011;25402;42.004;23.088;2023-09-07T04:13:15;19.17;;;13.60;;
39728;SDS011;25402;42.004;23.088;2023-09-07T04:15:42;19.65;;;10.25;;
39728;SDS011;25402;42.004;23.088;2023-09-07T04:18:10;17.02;;;11.07;;
39728;SDS011;25402;42.004;23.088;2023-09-07T04:20:38;18.95;;;10.15;;
39728;SDS011;25402;42.004;23.088;2023-09-07T04:23:05;15.13;;;9.30;;
39728;SDS011;25402;42.004;23.088;2023-09-07T04:25:31;22.30;;;11.07;;
39728;SDS011;25402;42.004;23.088;2023-09-07T04:28:00;17.58;;;9.30;;
39728;SDS011;25402;42.004;23.088;2023-09-07T04:30:27;16.58;;;10.90;;
39728;SDS011;25402;42.004;23.088;2023-09-07T04:32:54;18.80;;;10.35;;
39728;SDS011;25402;42.004;23.088;2023-09-07T04:35:21;18.25;;;12.35;;
39728;SDS011;25402;42.004;23.088;2023-09-07T04:37:53;17.00;;;9.98;;
39728;SDS011;25402;42.004;23.088;2023-09-07T04:40:20;21.63;;;10.68;;
39728;SDS011;25402;42.004;23.088;2023-09-07T04:42:48;18.42;;;11.80;;
39728;SDS011;25402;42.004;23.088;2023-09-07T04:45:16;18.50;;;11.02;;
39728;SDS011;25402;42.004;23.088;2023-09-07T04:47:44;23.13;;;12.90;;
39728;SDS011;25402;42.004;23.088;2023-09-07T04:50:10;27.48;;;12.95;;
39728;SDS011;25402;42.004;23.088;2023-09-07T04:52:38;20.17;;;12.40;;
39728;SDS011;25402;42.004;23.088;2023-09-07T05:00:38;19.08;;;11.63;;
39728;SDS011;25402;42.004;23.088;2023-09-07T05:03:06;34.25;;;12.27;;
39728;SDS011;25402;42.004;23.088;2023-09-07T05:05:33;27.80;;;11.95;;
39728;SDS011;25402;42.004;23.088;2023-09-07T05:08:02;19.35;;;11.27;;
39728;SDS011;25402;42.004;23.088;2023-09-07T05:10:32;26.10;;;11.82;;
39728;SDS011;25402;42.004;23.088;2023-09-07T05:12:59;34.60;;;11.45;;
39728;SDS011;25402;42.004;23.088;2023-09-07T05:15:26;18.38;;;11.45;;
39728;SDS011;25402;42.004;23.088;2023-09-07T05:17:55;28.85;;;12.52;;
39728;SDS011;25402;42.004;23.088;2023-09-07T05:20:22;28.00;;;12.75;;
39728;SDS011;25402;42.004;23.088;2023-09-07T05:22:55;18.13;;;11.98;;
39728;SDS011;25402;42.004;23.088;2023-09-07T05:25:32;25.95;;;12.38;;
39728;SDS011;25402;42.004;23.088;2023-09-07T05:27:59;31.27;;;11.55;;
39728;SDS011;25402;42.004;23.088;2023-09-07T05:30:26;24.38;;;12.43;;
39728;SDS011;25402;42.004;23.088;2023-09-07T05:32:54;26.33;;;11.93;;
39728;SDS011;25402;42.004;23.088;2023-09-07T05:35:21;19.48;;;11.75;;
39728;SDS011;25402;42.004;23.088;2023-09-07T05:37:52;29.90;;;12.63;;
39728;SDS011;25402;42.004;23.088;2023-09-07T05:40:19;35.45;;;12.35;;
39728;SDS011;25402;42.004;23.088;2023-09-07T05:42:46;36.03;;;13.40;;
39728;SDS011;25402;42.004;23.088;2023-09-07T05:45:13;25.02;;;14.73;;
39728;SDS011;25402;42.004;23.088;2023-09-07T05:47:40;32.55;;;13.68;;
39728;SDS011;25402;42.004;23.088;2023-09-07T05:50:09;40.85;;;12.95;;
39728;SDS011;25402;42.004;23.088;2023-09-07T05:52:36;32.28;;;14.38;;
39728;SDS011;25402;42.004;23.088;2023-09-07T05:55:03;25.65;;;12.02;;
39728;SDS011;25402;42.004;23.088;2023-09-07T05:57:30;23.60;;;11.07;;
39728;SDS011;25402;42.004;23.088;2023-09-07T05:59:57;18.90;;;11.52;;
39728;SDS011;25402;42.004;23.088;2023-09-07T06:02:24;32.17;;;12.43;;
39728;SDS011;25402;42.004;23.088;2023-09-07T06:04:51;24.48;;;11.73;;
39728;SDS011;25402;42.004;23.088;2023-09-07T06:07:20;20.27;;;11.48;;
39728;SDS011;25402;42.004;23.088;2023-09-07T06:09:47;30.50;;;12.23;;
39728;SDS011;25402;42.004;23.088;2023-09-07T06:12:15;19.27;;;11.52;;
39728;SDS011;25402;42.004;23.088;2023-09-07T06:14:42;23.23;;;12.20;;
39728;SDS011;25402;42.004;23.088;2023-09-07T06:17:10;18.27;;;10.98;;
39728;SDS011;25402;42.004;23.088;2023-09-07T06:19:38;23.20;;;11.57;;
39728;SDS011;25402;42.004;23.088;2023-09-07T06:22:09;19.17;;;11.25;;
39728;SDS011;25402;42.004;23.088;2023-09-07T06:24:40;22.70;;;11.77;;
39728;SDS011;25402;42.004;23.088;2023-09-07T06:27:08;29.83;;;13.43;;
39728;SDS011;25402;42.004;23.088;2023-09-07T06:29:36;30.40;;;13.10;;
39728;SDS011;25402;42.004;23.088;2023-09-07T06:32:05;30.40;;;18.02;;
39728;SDS011;25402;42.004;23.088;2023-09-07T06:34:32;33.17;;;12.88;;
39728;SDS011;25402;42.004;23.088;2023-09-07T06:36:59;19.85;;;9.73;;
39728;SDS011;25402;42.004;23.088;2023-09-07T06:39:26;23.65;;;10.88;;
39728;SDS011;25402;42.004;23.088;2023-09-07T06:41:54;21.88;;;11.30;;
39728;SDS011;25402;42.004;23.088;2023-09-07T06:44:22;14.68;;;10.40;;
39728;SDS011;25402;42.004;23.088;2023-09-07T06:46:49;14.02;;;9.55;;
39728;SDS011;25402;42.004;23.088;2023-09-07T06:49:17;20.13;;;10.10;;
39728;SDS011;25402;42.004;23.088;2023-09-07T06:51:44;17.90;;;9.88;;
39728;SDS011;25402;42.004;23.088;2023-09-07T06:54:12;19.73;;;10.13;;
39728;SDS011;25402;42.004;23.088;2023-09-07T06:56:39;17.92;;;9.73;;
39728;SDS011;25402;42.004;23.088;2023-09-07T06:59:07;24.33;;;10.25;;
39728;SDS011;25402;42.004;23.088;2023-09-07T07:01:34;19.58;;;10.80;;
39728;SDS011;25402;42.004;23.088;2023-09-07T07:04:01;19.27;;;11.40;;
39728;SDS011;25402;42.004;23.088;2023-09-07T07:06:29;17.45;;;10.93;;
39728;SDS011;25402;42.004;23.088;2023-09-07T07:08:57;15.85;;;9.40;;
39728;SDS011;25402;42.004;23.088;2023-09-07T07:11:25;21.98;;;10.75;;
39728;SDS011;25402;42.004;23.088;2023-09-07T07:13:52;22.90;;;10.00;;
39728;SDS011;25402;42.004;23.088;2023-09-07T07:16:20;16.58;;;9.85;;
39728;SDS011;25402;42.004;23.088;2023-09-07T07:18:47;17.17;;;8.75;;
39728;SDS011;25402;42.004;23.088;2023-09-07T07:21:16;13.73;;;9.18;;
39728;SDS011;25402;42.004;23.088;2023-09-07T07:23:43;14.80;;;8.85;;
39728;SDS011;25402;42.004;23.088;2023-09-07T07:26:09;18.60;;;9.90;;
39728;SDS011;25402;42.004;23.088;2023-09-07T07:28:36;19.55;;;9.43;;
39728;SDS011;25402;42.004;23.088;2023-09-07T07:31:07;21.05;;;9.18;;
39728;SDS011;25402;42.004;23.088;2023-09-07T07:33:36;17.90;;;8.77;;
39728;SDS011;25402;42.004;23.088;2023-09-07T07:36:03;20.45;;;9.00;;
39728;SDS011;25402;42.004;23.088;2023-09-07T07:38:31;16.15;;;8.40;;
39728;SDS011;25402;42.004;23.088;2023-09-07T07:40:58;23.50;;;9.18;;
39728;SDS011;25402;42.004;23.088;2023-09-07T07:43:25;26.30;;;8.63;;
39728;SDS011;25402;42.004;23.088;2023-09-07T07:45:53;12.07;;;8.20;;
39728;SDS011;25402;42.004;23.088;2023-09-07T07:48:21;23.08;;;9.90;;
39728;SDS011;25402;42.004;23.088;2023-09-07T07:50:49;15.88;;;9.00;;
39728;SDS011;25402;42.004;23.088;2023-09-07T07:53:16;13.82;;;8.65;;
39728;SDS011;25402;42.004;23.088;2023-09-07T07:55:43;15.40;;;8.75;;
39728;SDS011;25402;42.004;23.088;2023-09-07T07:58:11;15.63;;;8.50;;
39728;SDS011;25402;42.004;23.088;2023-09-07T08:00:38;13.32;;;7.55;;
39728;SDS011;25402;42.004;23.088;2023-09-07T08:03:06;11.35;;;7.63;;
39728;SDS011;25402;42.004;23.088;2023-09-07T08:05:34;21.35;;;8.43;;
39728;SDS011;25402;42.004;23.088;2023-09-07T08:08:03;19.52;;;7.88;;
39728;SDS011;25402;42.004;23.088;2023-09-07T08:10:33;15.98;;;7.85;;
39728;SDS011;25402;42.004;23.088;2023-09-07T08:13:01;15.32;;;7.22;;
39728;SDS011;25402;42.004;23.088;2023-09-07T08:15:32;9.95;;;6.80;;
39728;SDS011;25402;42.004;23.088;2023-09-07T08:17:59;13.27;;;7.93;;
39728;SDS011;25402;42.004;23.088;2023-09-07T08:20:31;11.77;;;7.40;;
39728;SDS011;25402;42.004;23.088;2023-09-07T08:22:59;14.43;;;6.55;;
39728;SDS011;25402;42.004;23.088;2023-09-07T08:25:30;15.18;;;7.60;;
39728;SDS011;25402;42.004;23.088;2023-09-07T08:27:57;17.10;;;6.97;;
39728;SDS011;25402;42.004;23.088;2023-09-07T08:30:25;15.35;;;7.35;;
39728;SDS011;25402;42.004;23.088;2023-09-07T08:32:52;11.80;;;6.40;;
39728;SDS011;25402;42.004;23.088;2023-09-07T08:35:20;22.38;;;7.05;;
39728;SDS011;25402;42.004;23.088;2023-09-07T08:37:52;12.35;;;6.20;;
39728;SDS011;25402;42.004;23.088;2023-09-07T08:40:23;15.35;;;6.68;;
39728;SDS011;25402;42.004;23.088;2023-09-07T08:42:53;10.70;;;6.75;;
39728;SDS011;25402;42.004;23.088;2023-09-07T08:45:21;9.18;;;6.20;;
39728;SDS011;25402;42.004;23.088;2023-09-07T08:47:48;11.40;;;6.32;;
39728;SDS011;25402;42.004;23.088;2023-09-07T08:50:16;20.88;;;6.10;;
39728;SDS011;25402;42.004;23.088;2023-09-07T08:52:45;9.45;;;5.57;;
39728;SDS011;25402;42.004;23.088;2023-09-07T08:55:16;10.15;;;5.60;;
39728;SDS011;25402;42.004;23.088;2023-09-07T08:57:46;14.60;;;6.13;;
39728;SDS011;25402;42.004;23.088;2023-09-07T09:00:15;15.45;;;7.30;;
39728;SDS011;25402;42.004;23.088;2023-09-07T09:02:46;19.48;;;5.75;;
39728;SDS011;25402;42.004;23.088;2023-09-07T09:05:13;16.80;;;6.47;;
39728;SDS011;25402;42.004;23.088;2023-09-07T09:07:43;14.02;;;5.80;;
39728;SDS011;25402;42.004;23.088;2023-09-07T09:10:10;7.68;;;5.50;;
39728;SDS011;25402;42.004;23.088;2023-09-07T09:12:44;13.40;;;6.07;;
39728;SDS011;25402;42.004;23.088;2023-09-07T09:15:12;8.57;;;5.82;;
39728;SDS011;25402;42.004;23.088;2023-09-07T09:17:40;8.55;;;5.97;;
39728;SDS011;25402;42.004;23.088;2023-09-07T09:20:19;10.80;;;5.22;;
39728;SDS011;25402;42.004;23.088;2023-09-07T09:22:47;8.20;;;3.80;;
39728;SDS011;25402;42.004;23.088;2023-09-07T09:25:16;14.38;;;4.18;;
39728;SDS011;25402;42.004;23.088;2023-09-07T09:27:43;14.90;;;6.53;;
39728;SDS011;25402;42.004;23.088;2023-09-07T09:30:10;8.65;;;5.63;;
39728;SDS011;25402;42.004;23.088;2023-09-07T09:32:41;10.77;;;5.82;;
39728;SDS011;25402;42.004;23.088;2023-09-07T09:35:09;11.02;;;5.90;;
39728;SDS011;25402;42.004;23.088;2023-09-07T09:37:45;8.65;;;5.18;;
39728;SDS011;25402;42.004;23.088;2023-09-07T09:40:14;9.40;;;4.90;;
39728;SDS011;25402;42.004;23.088;2023-09-07T09:42:44;10.63;;;5.57;;
39728;SDS011;25402;42.004;23.088;2023-09-07T09:45:13;13.52;;;6.40;;
39728;SDS011;25402;42.004;23.088;2023-09-07T09:47:42;68.53;;;7.78;;
39728;SDS011;25402;42.004;23.088;2023-09-07T09:50:11;16.70;;;6.05;;
39728;SDS011;25402;42.004;23.088;2023-09-07T09:52:38;11.88;;;5.15;;
39728;SDS011;25402;42.004;23.088;2023-09-07T09:55:06;7.70;;;5.18;;
39728;SDS011;25402;42.004;23.088;2023-09-07T09:57:38;6.20;;;4.57;;
39728;SDS011;25402;42.004;23.088;2023-09-07T10:00:05;12.68;;;5.13;;
39728;SDS011;25402;42.004;23.088;2023-09-07T10:02:49;8.60;;;4.72;;
39728;SDS011;25402;42.004;23.088;2023-09-07T10:05:20;14.40;;;5.45;;
39728;SDS011;25402;42.004;23.088;2023-09-07T10:07:50;8.98;;;4.85;;
39728;SDS011;25402;42.004;23.088;2023-09-07T10:10:18;5.55;;;3.80;;
39728;SDS011;25402;42.004;23.088;2023-09-07T10:12:51;7.20;;;3.55;;
39728;SDS011;25402;42.004;23.088;2023-09-07T10:15:23;7.57;;;4.70;;
39728;SDS011;25402;42.004;23.088;2023-09-07T10:18:04;15.43;;;4.50;;
39728;SDS011;25402;42.004;23.088;2023-09-07T10:20:46;8.52;;;4.93;;
39728;SDS011;25402;42.004;23.088;2023-09-07T10:23:16;9.15;;;4.85;;
39728;SDS011;25402;42.004;23.088;2023-09-07T10:25:49;7.57;;;3.65;;
39728;SDS011;25402;42.004;23.088;2023-09-07T10:28:18;6.15;;;3.72;;
39728;SDS011;25402;42.004;23.088;2023-09-07T10:30:46;11.00;;;4.90;;
39728;SDS011;25402;42.004;23.088;2023-09-07T10:36:57;7.88;;;3.40;;
39728;SDS011;25402;42.004;23.088;2023-09-07T10:39:50;12.00;;;3.67;;
39728;SDS011;25402;42.004;23.088;2023-09-07T10:42:21;5.72;;;3.30;;
39728;SDS011;25402;42.004;23.088;2023-09-07T10:44:49;9.70;;;3.50;;
39728;SDS011;25402;42.004;23.088;2023-09-07T10:47:16;4.13;;;3.22;;
39728;SDS011;25402;42.004;23.088;2023-09-07T10:49:44;5.78;;;3.65;;
39728;SDS011;25402;42.004;23.088;2023-09-07T10:52:13;8.00;;;3.72;;
39728;SDS011;25402;42.004;23.088;2023-09-07T10:54:39;6.35;;;3.25;;
39728;SDS011;25402;42.004;23.088;2023-09-07T10:57:07;11.52;;;3.75;;
39728;SDS011;25402;42.004;23.088;2023-09-07T10:59:35;8.10;;;3.10;;
39728;SDS011;25402;42.004;23.088;2023-09-07T11:02:03;8.88;;;3.70;;
39728;SDS011;25402;42.004;23.088;2023-09-07T11:04:31;6.18;;;3.65;;
39728;SDS011;25402;42.004;23.088;2023-09-07T11:07:00;7.25;;;3.53;;
39728;SDS011;25402;42.004;23.088;2023-09-07T11:09:29;9.55;;;3.67;;
39728;SDS011;25402;42.004;23.088;2023-09-07T11:11:57;5.78;;;3.45;;
39728;SDS011;25402;42.004;23.088;2023-09-07T11:14:29;6.63;;;3.95;;
39728;SDS011;25402;42.004;23.088;2023-09-07T11:16:56;9.07;;;3.80;;
39728;SDS011;25402;42.004;23.088;2023-09-07T11:19:23;7.13;;;3.08;;
39728;SDS011;25402;42.004;23.088;2023-09-07T11:21:53;8.27;;;3.67;;
39728;SDS011;25402;42.004;23.088;2023-09-07T11:24:21;40.78;;;11.65;;
39728;SDS011;25402;42.004;23.088;2023-09-07T11:26:49;17.30;;;6.18;;
39728;SDS011;25402;42.004;23.088;2023-09-07T11:29:16;11.60;;;4.07;;
39728;SDS011;25402;42.004;23.088;2023-09-07T11:31:44;6.45;;;3.45;;
39728;SDS011;25402;42.004;23.088;2023-09-07T11:34:11;7.32;;;3.65;;
39728;SDS011;25402;42.004;23.088;2023-09-07T11:36:40;8.35;;;3.95;;
39728;SDS011;25402;42.004;23.088;2023-09-07T11:39:08;6.22;;;3.50;;
39728;SDS011;25402;42.004;23.088;2023-09-07T11:41:40;8.20;;;4.05;;
39728;SDS011;25402;42.004;23.088;2023-09-07T11:44:07;11.77;;;4.38;;
39728;SDS011;25402;42.004;23.088;2023-09-07T11:46:36;9.73;;;3.97;;
39728;SDS011;25402;42.004;23.088;2023-09-07T11:49:03;5.53;;;3.70;;
39728;SDS011;25402;42.004;23.088;2023-09-07T11:51:31;8.10;;;3.75;;
39728;SDS011;25402;42.004;23.088;2023-09-07T11:53:58;16.10;;;3.88;;
39728;SDS011;25402;42.004;23.088;2023-09-07T11:56:25;10.38;;;4.30;;
39728;SDS011;25402;42.004;23.088;2023-09-07T11:58:53;9.80;;;3.92;;
39728;SDS011;25402;42.004;23.088;2023-09-07T12:01:21;15.05;;;4.55;;
39728;SDS011;25402;42.004;23.088;2023-09-07T12:03:51;10.38;;;4.28;;
39728;SDS011;25402;42.004;23.088;2023-09-07T12:06:19;7.45;;;3.97;;
39728;SDS011;25402;42.004;23.088;2023-09-07T12:08:57;8.57;;;4.05;;
39728;SDS011;25402;42.004;23.088;2023-09-07T12:11:27;11.32;;;4.38;;
39728;SDS011;25402;42.004;23.088;2023-09-07T12:13:56;8.43;;;3.83;;
39728;SDS011;25402;42.004;23.088;2023-09-07T12:16:24;6.18;;;3.88;;
39728;SDS011;25402;42.004;23.088;2023-09-07T12:18:51;13.27;;;5.18;;
39728;SDS011;25402;42.004;23.088;2023-09-07T12:21:18;16.30;;;5.18;;
39728;SDS011;25402;42.004;23.088;2023-09-07T12:23:47;12.50;;;4.32;;
39728;SDS011;25402;42.004;23.088;2023-09-07T12:26:14;8.20;;;3.78;;
39728;SDS011;25402;42.004;23.088;2023-09-07T12:28:42;17.90;;;4.93;;
39728;SDS011;25402;42.004;23.088;2023-09-07T12:31:11;24.27;;;6.47;;
39728;SDS011;25402;42.004;23.088;2023-09-07T12:33:39;18.20;;;4.93;;
39728;SDS011;25402;42.004;23.088;2023-09-07T12:36:06;13.23;;;4.43;;
39728;SDS011;25402;42.004;23.088;2023-09-07T12:38:35;13.13;;;5.03;;
39728;SDS011;25402;42.004;23.088;2023-09-07T12:41:02;12.00;;;4.80;;
39728;SDS011;25402;42.004;23.088;2023-09-07T12:43:30;15.45;;;4.90;;
39728;SDS011;25402;42.004;23.088;2023-09-07T12:45:59;13.90;;;4.80;;
39728;SDS011;25402;42.004;23.088;2023-09-07T12:48:27;22.35;;;6.75;;
39728;SDS011;25402;42.004;23.088;2023-09-07T12:50:56;18.05;;;5.28;;
39728;SDS011;25402;42.004;23.088;2023-09-07T12:53:23;23.15;;;6.57;;
39728;SDS011;25402;42.004;23.088;2023-09-07T12:55:50;14.32;;;4.35;;
39728;SDS011;25402;42.004;23.088;2023-09-07T12:58:18;23.80;;;5.43;;
39728;SDS011;25402;42.004;23.088;2023-09-07T13:00:45;10.23;;;4.90;;
39728;SDS011;25402;42.004;23.088;2023-09-07T13:03:13;9.85;;;3.72;;
39728;SDS011;25402;42.004;23.088;2023-09-07T13:05:42;14.50;;;4.88;;
39728;SDS011;25402;42.004;23.088;2023-09-07T13:08:10;19.10;;;6.20;;
39728;SDS011;25402;42.004;23.088;2023-09-07T13:10:37;18.88;;;6.82;;
39728;SDS011;25402;42.004;23.088;2023-09-07T13:13:05;12.65;;;5.10;;
39728;SDS011;25402;42.004;23.088;2023-09-07T13:15:32;11.88;;;5.35;;
39728;SDS011;25402;42.004;23.088;2023-09-07T13:17:59;12.77;;;5.40;;
39728;SDS011;25402;42.004;23.088;2023-09-07T13:20:29;8.75;;;4.45;;
39728;SDS011;25402;42.004;23.088;2023-09-07T13:23:26;8.00;;;4.07;;
39728;SDS011;25402;42.004;23.088;2023-09-07T13:25:53;17.00;;;6.65;;
39728;SDS011;25402;42.004;23.088;2023-09-07T13:28:21;14.25;;;6.32;;
39728;SDS011;25402;42.004;23.088;2023-09-07T13:30:48;23.85;;;9.13;;
39728;SDS011;25402;42.004;23.088;2023-09-07T13:33:16;7.53;;;4.03;;
39728;SDS011;25402;42.004;23.088;2023-09-07T13:35:43;19.50;;;12.90;;
39728;SDS011;25402;42.004;23.088;2023-09-07T13:38:12;8.68;;;6.38;;
39728;SDS011;25402;42.004;23.088;2023-09-07T13:40:41;10.05;;;5.95;;
39728;SDS011;25402;42.004;23.088;2023-09-07T13:43:08;13.40;;;3.90;;
39728;SDS011;25402;42.004;23.088;2023-09-07T13:45:35;15.00;;;4.18;;
39728;SDS011;25402;42.004;23.088;2023-09-07T13:48:02;9.15;;;4.32;;
39728;SDS011;25402;42.004;23.088;2023-09-07T13:50:29;9.18;;;4.40;;
39728;SDS011;25402;42.004;23.088;2023-09-07T13:52:56;5.28;;;3.22;;
39728;SDS011;25402;42.004;23.088;2023-09-07T13:55:23;8.60;;;3.60;;
39728;SDS011;25402;42.004;23.088;2023-09-07T13:57:53;5.88;;;3.78;;
39728;SDS011;25402;42.004;23.088;2023-09-07T14:00:20;14.90;;;3.92;;
39728;SDS011;25402;42.004;23.088;2023-09-07T14:02:47;10.10;;;3.72;;
39728;SDS011;25402;42.004;23.088;2023-09-07T14:05:15;7.10;;;3.55;;
39728;SDS011;25402;42.004;23.088;2023-09-07T14:07:51;5.47;;;3.78;;
39728;SDS011;25402;42.004;23.088;2023-09-07T14:10:20;8.32;;;3.55;;
39728;SDS011;25402;42.004;23.088;2023-09-07T14:12:47;9.68;;;4.00;;
39728;SDS011;25402;42.004;23.088;2023-09-07T14:15:16;4.93;;;3.63;;
39728;SDS011;25402;42.004;23.088;2023-09-07T14:17:43;9.82;;;3.88;;
39728;SDS011;25402;42.004;23.088;2023-09-07T14:20:10;7.40;;;3.88;;
39728;SDS011;25402;42.004;23.088;2023-09-07T14:22:38;5.75;;;3.80;;
39728;SDS011;25402;42.004;23.088;2023-09-07T14:25:05;9.38;;;4.55;;
39728;SDS011;25402;42.004;23.088;2023-09-07T14:27:33;8.88;;;4.18;;
39728;SDS011;25402;42.004;23.088;2023-09-07T14:30:00;9.02;;;3.90;;
39728;SDS011;25402;42.004;23.088;2023-09-07T14:32:29;9.98;;;3.88;;
39728;SDS011;25402;42.004;23.088;2023-09-07T14:34:57;10.18;;;4.13;;
39728;SDS011;25402;42.004;23.088;2023-09-07T14:37:27;13.20;;;4.57;;
39728;SDS011;25402;42.004;23.088;2023-09-07T14:39:55;7.35;;;3.80;;